sensor_id;sensor_type;location;lat;lon;timestamp;temperature;humidity
43320;DHT22;28914;48.722;9.332;2023-11-21T00:03:58;11.90;83.00
43320;DHT22;28914;48.722;9.332;2023-11-21T00:09:17;11.80;83.00
43320;DHT22;28914;48.722;9.332;2023-11-21T00:14:39;11.80;83.00
43320;DHT22;28914;48.722;9.332;2023-11-21T00:19:58;11.80;83.20
43320;DHT22;28914;48.722;9.332;2023-11-21T00:25:17;11.80;83.20
43320;DHT22;28914;48.722;9.332;2023-11-21T00:30:37;11.80;83.30
43320;DHT22;28914;48.722;9.332;2023-11-21T00:35:56;11.80;83.20
43320;DHT22;28914;48.722;9.332;2023-11-21T00:41:16;11.80;84.00
43320;DHT22;28914;48.722;9.332;2023-11-21T00:46:35;11.80;83.40
43320;DHT22;28914;48.722;9.332;2023-11-21T00:51:55;11.80;83.60
43320;DHT22;28914;48.722;9.332;2023-11-21T00:57:16;11.80;83.70
43320;DHT22;28914;48.722;9.332;2023-11-21T01:02:36;11.80;83.70
43320;DHT22;28914;48.722;9.332;2023-11-21T01:07:55;11.80;83.90
43320;DHT22;28914;48.722;9.332;2023-11-21T01:13:14;11.80;83.80
43320;DHT22;28914;48.722;9.332;2023-11-21T01:18:35;11.80;83.70
43320;DHT22;28914;48.722;9.332;2023-11-21T01:23:54;11.90;84.00
43320;DHT22;28914;48.722;9.332;2023-11-21T01:29:14;11.90;83.90
43320;DHT22;28914;48.722;9.332;2023-11-21T01:34:34;11.90;83.90
43320;DHT22;28914;48.722;9.332;2023-11-21T01:39:54;11.90;84.20
43320;DHT22;28914;48.722;9.332;2023-11-21T01:45:14;11.90;84.20
43320;DHT22;28914;48.722;9.332;2023-11-21T01:50:33;11.90;84.10
43320;DHT22;28914;48.722;9.332;2023-11-21T01:55:53;11.90;84.00
43320;DHT22;28914;48.722;9.332;2023-11-21T02:01:12;11.90;84.70
43320;DHT22;28914;48.722;9.332;2023-11-21T02:06:31;11.90;84.20
43320;DHT22;28914;48.722;9.332;2023-11-21T02:11:50;11.90;84.20
43320;DHT22;28914;48.722;9.332;2023-11-21T02:17:10;11.90;84.20
43320;DHT22;28914;48.722;9.332;2023-11-21T02:22:30;12.00;84.50
43320;DHT22;28914;48.722;9.332;2023-11-21T02:27:51;11.90;84.40
43320;DHT22;28914;48.722;9.332;2023-11-21T02:33:10;12.00;84.50
43320;DHT22;28914;48.722;9.332;2023-11-21T02:38:31;12.00;84.60
43320;DHT22;28914;48.722;9.332;2023-11-21T02:43:50;12.00;84.60
43320;DHT22;28914;48.722;9.332;2023-11-21T02:49:10;12.00;84.50
43320;DHT22;28914;48.722;9.332;2023-11-21T02:54:29;12.00;84.70
43320;DHT22;28914;48.722;9.332;2023-11-21T02:59:48;12.00;84.60
43320;DHT22;28914;48.722;9.332;2023-11-21T03:05:08;12.00;84.60
43320;DHT22;28914;48.722;9.332;2023-11-21T03:10:30;12.00;84.50
43320;DHT22;28914;48.722;9.332;2023-11-21T03:15:49;12.00;84.60
43320;DHT22;28914;48.722;9.332;2023-11-21T03:21:08;11.90;84.50
43320;DHT22;28914;48.722;9.332;2023-11-21T03:26:28;11.90;85.40
43320;DHT22;28914;48.722;9.332;2023-11-21T03:31:47;12.00;84.60
43320;DHT22;28914;48.722;9.332;2023-11-21T03:37:06;12.00;84.70
43320;DHT22;28914;48.722;9.332;2023-11-21T03:42:25;12.00;84.70
43320;DHT22;28914;48.722;9.332;2023-11-21T03:47:45;12.00;84.70
43320;DHT22;28914;48.722;9.332;2023-11-21T03:53:05;12.00;84.70
43320;DHT22;28914;48.722;9.332;2023-11-21T03:58:25;12.00;84.70
43320;DHT22;28914;48.722;9.332;2023-11-21T04:03:44;12.00;84.70
43320;DHT22;28914;48.722;9.332;2023-11-21T04:09:03;12.00;84.70
43320;DHT22;28914;48.722;9.332;2023-11-21T04:14:23;12.00;84.80
43320;DHT22;28914;48.722;9.332;2023-11-21T04:19:42;12.00;84.70
43320;DHT22;28914;48.722;9.332;2023-11-21T04:25:02;12.00;84.70
43320;DHT22;28914;48.722;9.332;2023-11-21T04:30:21;12.10;84.70
43320;DHT22;28914;48.722;9.332;2023-11-21T04:35:41;12.00;84.70
43320;DHT22;28914;48.722;9.332;2023-11-21T04:41:00;12.00;84.80
43320;DHT22;28914;48.722;9.332;2023-11-21T04:46:19;12.00;84.90
43320;DHT22;28914;48.722;9.332;2023-11-21T04:51:38;12.10;85.00
43320;DHT22;28914;48.722;9.332;2023-11-21T04:56:57;12.00;85.00
43320;DHT22;28914;48.722;9.332;2023-11-21T05:02:17;12.00;85.00
43320;DHT22;28914;48.722;9.332;2023-11-21T05:07:39;12.00;85.00
43320;DHT22;28914;48.722;9.332;2023-11-21T05:12:58;12.00;85.00
43320;DHT22;28914;48.722;9.332;2023-11-21T05:18:17;12.10;85.00
43320;DHT22;28914;48.722;9.332;2023-11-21T05:23:37;12.00;85.70
43320;DHT22;28914;48.722;9.332;2023-11-21T05:28:56;11.90;84.80
43320;DHT22;28914;48.722;9.332;2023-11-21T05:34:15;11.90;84.80
43320;DHT22;28914;48.722;9.332;2023-11-21T05:39:34;11.90;84.90
43320;DHT22;28914;48.722;9.332;2023-11-21T05:44:54;11.90;85.00
43320;DHT22;28914;48.722;9.332;2023-11-21T05:50:16;11.90;85.10
43320;DHT22;28914;48.722;9.332;2023-11-21T05:55:35;11.90;85.00
43320;DHT22;28914;48.722;9.332;2023-11-21T06:00:54;11.90;85.20
43320;DHT22;28914;48.722;9.332;2023-11-21T06:06:14;11.90;85.30
43320;DHT22;28914;48.722;9.332;2023-11-21T06:11:33;11.80;85.30
43320;DHT22;28914;48.722;9.332;2023-11-21T06:16:52;11.90;85.50
43320;DHT22;28914;48.722;9.332;2023-11-21T06:22:11;11.90;85.40
43320;DHT22;28914;48.722;9.332;2023-11-21T06:27:37;11.90;85.30
43320;DHT22;28914;48.722;9.332;2023-11-21T06:32:56;11.80;85.20
43320;DHT22;28914;48.722;9.332;2023-11-21T06:38:15;11.80;85.30
43320;DHT22;28914;48.722;9.332;2023-11-21T06:43:34;11.70;85.40
43320;DHT22;28914;48.722;9.332;2023-11-21T06:48:55;11.70;85.50
43320;DHT22;28914;48.722;9.332;2023-11-21T06:54:14;11.70;85.70
43320;DHT22;28914;48.722;9.332;2023-11-21T06:59:34;11.70;85.80
43320;DHT22;28914;48.722;9.332;2023-11-21T07:04:53;11.70;85.90
43320;DHT22;28914;48.722;9.332;2023-11-21T07:10:12;11.70;86.10
43320;DHT22;28914;48.722;9.332;2023-11-21T07:15:31;11.70;86.10
43320;DHT22;28914;48.722;9.332;2023-11-21T07:20:51;11.90;86.40
43320;DHT22;28914;48.722;9.332;2023-11-21T07:26:12;11.90;86.50
43320;DHT22;28914;48.722;9.332;2023-11-21T07:31:31;12.00;86.50
43320;DHT22;28914;48.722;9.332;2023-11-21T07:36:53;12.10;86.50
43320;DHT22;28914;48.722;9.332;2023-11-21T07:42:12;12.20;86.50
43320;DHT22;28914;48.722;9.332;2023-11-21T07:47:31;12.30;87.20
43320;DHT22;28914;48.722;9.332;2023-11-21T07:52:53;12.40;86.50
43320;DHT22;28914;48.722;9.332;2023-11-21T07:58:13;12.50;86.40
43320;DHT22;28914;48.722;9.332;2023-11-21T08:03:33;12.60;86.30
43320;DHT22;28914;48.722;9.332;2023-11-21T08:08:52;12.70;86.20
43320;DHT22;28914;48.722;9.332;2023-11-21T08:14:11;12.80;86.00
43320;DHT22;28914;48.722;9.332;2023-11-21T08:19:30;12.90;85.70
43320;DHT22;28914;48.722;9.332;2023-11-21T08:24:50;13.00;85.40
43320;DHT22;28914;48.722;9.332;2023-11-21T08:30:10;13.00;86.10
43320;DHT22;28914;48.722;9.332;2023-11-21T08:35:30;13.10;85.30
43320;DHT22;28914;48.722;9.332;2023-11-21T08:40:50;13.10;85.40
43320;DHT22;28914;48.722;9.332;2023-11-21T08:46:09;13.20;85.10
43320;DHT22;28914;48.722;9.332;2023-11-21T08:51:29;13.20;85.10
43320;DHT22;28914;48.722;9.332;2023-11-21T08:56:47;13.30;84.80
43320;DHT22;28914;48.722;9.332;2023-11-21T09:02:07;13.30;84.80
43320;DHT22;28914;48.722;9.332;2023-11-21T09:07:27;13.30;84.60
43320;DHT22;28914;48.722;9.332;2023-11-21T09:12:46;13.40;84.40
43320;DHT22;28914;48.722;9.332;2023-11-21T09:18:05;13.40;84.50
43320;DHT22;28914;48.722;9.332;2023-11-21T09:23:24;13.50;84.50
43320;DHT22;28914;48.722;9.332;2023-11-21T09:28:44;13.50;84.50
43320;DHT22;28914;48.722;9.332;2023-11-21T09:34:06;13.60;84.80
43320;DHT22;28914;48.722;9.332;2023-11-21T09:39:25;13.80;84.70
43320;DHT22;28914;48.722;9.332;2023-11-21T09:44:51;14.00;84.50
43320;DHT22;28914;48.722;9.332;2023-11-21T09:50:17;14.40;85.80
43320;DHT22;28914;48.722;9.332;2023-11-21T09:55:37;15.60;90.20
43320;DHT22;28914;48.722;9.332;2023-11-21T10:00:59;17.80;89.80
43320;DHT22;28914;48.722;9.332;2023-11-21T10:06:21;19.70;80.80
43320;DHT22;28914;48.722;9.332;2023-11-21T10:11:42;20.20;73.10
43320;DHT22;28914;48.722;9.332;2023-11-21T10:17:02;19.90;71.20
43320;DHT22;28914;48.722;9.332;2023-11-21T10:22:22;19.30;70.70
43320;DHT22;28914;48.722;9.332;2023-11-21T10:27:42;18.60;70.80
43320;DHT22;28914;48.722;9.332;2023-11-21T10:33:06;18.00;71.00
43320;DHT22;28914;48.722;9.332;2023-11-21T10:38:25;17.40;71.90
43320;DHT22;28914;48.722;9.332;2023-11-21T10:43:47;17.00;73.00
43320;DHT22;28914;48.722;9.332;2023-11-21T10:49:06;16.70;73.50
43320;DHT22;28914;48.722;9.332;2023-11-21T10:54:26;16.40;74.30
43320;DHT22;28914;48.722;9.332;2023-11-21T10:59:48;16.30;74.50
43320;DHT22;28914;48.722;9.332;2023-11-21T11:05:08;16.10;75.10
43320;DHT22;28914;48.722;9.332;2023-11-21T11:10:30;15.90;74.70
43320;DHT22;28914;48.722;9.332;2023-11-21T11:15:50;15.80;75.40
43320;DHT22;28914;48.722;9.332;2023-11-21T11:21:28;15.60;75.90
43320;DHT22;28914;48.722;9.332;2023-11-21T11:26:57;15.50;76.60
43320;DHT22;28914;48.722;9.332;2023-11-21T11:32:38;15.40;76.80
43320;DHT22;28914;48.722;9.332;2023-11-21T11:37:59;15.30;77.00
43320;DHT22;28914;48.722;9.332;2023-11-21T11:43:28;15.10;77.10
43320;DHT22;28914;48.722;9.332;2023-11-21T11:48:48;15.00;77.50
43320;DHT22;28914;48.722;9.332;2023-11-21T11:54:07;14.80;77.90
43320;DHT22;28914;48.722;9.332;2023-11-21T11:59:26;14.60;78.50
43320;DHT22;28914;48.722;9.332;2023-11-21T12:04:46;14.60;79.10
43320;DHT22;28914;48.722;9.332;2023-11-21T12:10:05;14.50;79.30
43320;DHT22;28914;48.722;9.332;2023-11-21T12:15:25;14.40;79.60
43320;DHT22;28914;48.722;9.332;2023-11-21T12:20:46;14.40;79.90
43320;DHT22;28914;48.722;9.332;2023-11-21T12:26:08;14.40;79.90
43320;DHT22;28914;48.722;9.332;2023-11-21T12:31:28;14.40;80.10
43320;DHT22;28914;48.722;9.332;2023-11-21T12:36:48;14.50;80.50
43320;DHT22;28914;48.722;9.332;2023-11-21T12:42:09;14.60;80.50
43320;DHT22;28914;48.722;9.332;2023-11-21T12:47:29;14.70;80.50
43320;DHT22;28914;48.722;9.332;2023-11-21T12:52:50;14.80;80.30
43320;DHT22;28914;48.722;9.332;2023-11-21T12:58:10;14.90;80.20
43320;DHT22;28914;48.722;9.332;2023-11-21T13:03:30;14.90;80.30
43320;DHT22;28914;48.722;9.332;2023-11-21T13:08:50;15.00;80.40
43320;DHT22;28914;48.722;9.332;2023-11-21T13:14:10;15.10;79.90
43320;DHT22;28914;48.722;9.332;2023-11-21T13:19:29;15.10;79.80
43320;DHT22;28914;48.722;9.332;2023-11-21T13:24:50;15.10;80.00
43320;DHT22;28914;48.722;9.332;2023-11-21T13:30:09;15.00;80.00
43320;DHT22;28914;48.722;9.332;2023-11-21T13:35:29;15.00;79.90
43320;DHT22;28914;48.722;9.332;2023-11-21T13:40:56;15.00;79.70
43320;DHT22;28914;48.722;9.332;2023-11-21T13:46:17;14.90;79.60
43320;DHT22;28914;48.722;9.332;2023-11-21T13:51:40;14.90;79.70
43320;DHT22;28914;48.722;9.332;2023-11-21T13:57:03;14.90;79.80
43320;DHT22;28914;48.722;9.332;2023-11-21T14:02:24;14.90;79.50
43320;DHT22;28914;48.722;9.332;2023-11-21T14:07:51;14.80;79.50
43320;DHT22;28914;48.722;9.332;2023-11-21T14:13:10;14.70;79.60
43320;DHT22;28914;48.722;9.332;2023-11-21T14:18:29;14.60;79.80
43320;DHT22;28914;48.722;9.332;2023-11-21T14:23:57;14.50;79.80
43320;DHT22;28914;48.722;9.332;2023-11-21T14:29:18;14.40;80.10
43320;DHT22;28914;48.722;9.332;2023-11-21T14:34:38;14.30;80.40
43320;DHT22;28914;48.722;9.332;2023-11-21T14:39:59;14.30;80.70
43320;DHT22;28914;48.722;9.332;2023-11-21T14:45:19;14.10;80.70
43320;DHT22;28914;48.722;9.332;2023-11-21T14:50:39;14.00;80.80
43320;DHT22;28914;48.722;9.332;2023-11-21T14:56:01;14.00;80.80
43320;DHT22;28914;48.722;9.332;2023-11-21T15:01:26;13.90;80.70
43320;DHT22;28914;48.722;9.332;2023-11-21T15:07:12;13.80;81.00
43320;DHT22;28914;48.722;9.332;2023-11-21T15:12:31;13.70;81.20
43320;DHT22;28914;48.722;9.332;2023-11-21T15:17:57;13.70;81.30
43320;DHT22;28914;48.722;9.332;2023-11-21T15:23:16;13.60;81.40
43320;DHT22;28914;48.722;9.332;2023-11-21T15:28:38;13.60;81.60
43320;DHT22;28914;48.722;9.332;2023-11-21T15:33:56;13.60;81.70
43320;DHT22;28914;48.722;9.332;2023-11-21T15:39:18;13.50;81.80
43320;DHT22;28914;48.722;9.332;2023-11-21T15:44:38;13.50;81.80
43320;DHT22;28914;48.722;9.332;2023-11-21T15:49:57;13.40;82.10
43320;DHT22;28914;48.722;9.332;2023-11-21T15:55:16;13.40;82.20
43320;DHT22;28914;48.722;9.332;2023-11-21T16:00:36;13.40;82.40
43320;DHT22;28914;48.722;9.332;2023-11-21T16:05:56;13.40;82.30
43320;DHT22;28914;48.722;9.332;2023-11-21T16:11:15;13.30;82.20
43320;DHT22;28914;48.722;9.332;2023-11-21T16:16:34;13.30;82.20
43320;DHT22;28914;48.722;9.332;2023-11-21T16:21:53;13.30;82.30
43320;DHT22;28914;48.722;9.332;2023-11-21T16:27:13;13.20;82.50
43320;DHT22;28914;48.722;9.332;2023-11-21T16:32:32;13.20;82.50
43320;DHT22;28914;48.722;9.332;2023-11-21T16:37:55;13.20;82.50
43320;DHT22;28914;48.722;9.332;2023-11-21T16:43:15;13.20;82.50
43320;DHT22;28914;48.722;9.332;2023-11-21T16:48:34;13.20;82.50
43320;DHT22;28914;48.722;9.332;2023-11-21T16:53:53;13.20;82.50
43320;DHT22;28914;48.722;9.332;2023-11-21T16:59:13;13.10;82.50
43320;DHT22;28914;48.722;9.332;2023-11-21T17:04:32;13.10;82.50
43320;DHT22;28914;48.722;9.332;2023-11-21T17:09:53;13.10;82.70
43320;DHT22;28914;48.722;9.332;2023-11-21T17:15:12;13.00;82.70
43320;DHT22;28914;48.722;9.332;2023-11-21T17:20:31;13.00;82.60
43320;DHT22;28914;48.722;9.332;2023-11-21T17:25:50;12.80;82.20
43320;DHT22;28914;48.722;9.332;2023-11-21T17:31:10;12.80;82.30
43320;DHT22;28914;48.722;9.332;2023-11-21T17:36:29;12.60;82.20
43320;DHT22;28914;48.722;9.332;2023-11-21T17:41:48;12.40;82.20
43320;DHT22;28914;48.722;9.332;2023-11-21T17:47:07;12.30;82.40
43320;DHT22;28914;48.722;9.332;2023-11-21T17:52:28;12.10;82.60
43320;DHT22;28914;48.722;9.332;2023-11-21T17:57:47;12.00;82.90
43320;DHT22;28914;48.722;9.332;2023-11-21T18:03:06;11.90;83.10
43320;DHT22;28914;48.722;9.332;2023-11-21T18:08:25;11.80;83.40
43320;DHT22;28914;48.722;9.332;2023-11-21T18:13:45;11.70;83.60
43320;DHT22;28914;48.722;9.332;2023-11-21T18:19:04;11.60;83.80
43320;DHT22;28914;48.722;9.332;2023-11-21T18:24:23;11.60;84.20
43320;DHT22;28914;48.722;9.332;2023-11-21T18:29:43;11.50;84.30
43320;DHT22;28914;48.722;9.332;2023-11-21T18:35:02;11.50;84.50
43320;DHT22;28914;48.722;9.332;2023-11-21T18:40:22;11.50;84.80
43320;DHT22;28914;48.722;9.332;2023-11-21T18:45:41;11.60;85.30
43320;DHT22;28914;48.722;9.332;2023-11-21T18:51:00;11.60;85.50
43320;DHT22;28914;48.722;9.332;2023-11-21T18:56:20;11.70;85.70
43320;DHT22;28914;48.722;9.332;2023-11-21T19:01:40;11.70;85.70
43320;DHT22;28914;48.722;9.332;2023-11-21T19:07:01;11.80;85.70
43320;DHT22;28914;48.722;9.332;2023-11-21T19:12:21;11.90;85.80
43320;DHT22;28914;48.722;9.332;2023-11-21T19:17:40;12.00;85.90
43320;DHT22;28914;48.722;9.332;2023-11-21T19:23:00;12.10;85.80
43320;DHT22;28914;48.722;9.332;2023-11-21T19:28:19;12.10;85.70
43320;DHT22;28914;48.722;9.332;2023-11-21T19:33:38;12.20;85.60
43320;DHT22;28914;48.722;9.332;2023-11-21T19:38:57;12.20;85.40
43320;DHT22;28914;48.722;9.332;2023-11-21T19:44:16;12.30;85.30
43320;DHT22;28914;48.722;9.332;2023-11-21T19:49:36;12.30;85.30
43320;DHT22;28914;48.722;9.332;2023-11-21T19:54:55;12.30;85.20
43320;DHT22;28914;48.722;9.332;2023-11-21T20:00:15;12.30;85.20
43320;DHT22;28914;48.722;9.332;2023-11-21T20:05:35;12.30;85.30
43320;DHT22;28914;48.722;9.332;2023-11-21T20:10:54;12.30;85.30
43320;DHT22;28914;48.722;9.332;2023-11-21T20:16:13;12.20;85.20
43320;DHT22;28914;48.722;9.332;2023-11-21T20:21:35;12.20;85.30
43320;DHT22;28914;48.722;9.332;2023-11-21T20:26:55;12.20;85.40
43320;DHT22;28914;48.722;9.332;2023-11-21T20:32:14;12.20;85.50
43320;DHT22;28914;48.722;9.332;2023-11-21T20:37:34;12.20;85.70
43320;DHT22;28914;48.722;9.332;2023-11-21T20:42:53;12.20;85.50
43320;DHT22;28914;48.722;9.332;2023-11-21T20:48:12;12.20;85.50
43320;DHT22;28914;48.722;9.332;2023-11-21T20:53:32;12.10;85.50
43320;DHT22;28914;48.722;9.332;2023-11-21T20:58:51;12.10;85.50
43320;DHT22;28914;48.722;9.332;2023-11-21T21:04:11;12.10;85.60
43320;DHT22;28914;48.722;9.332;2023-11-21T21:09:30;12.00;85.70
43320;DHT22;28914;48.722;9.332;2023-11-21T21:14:49;12.00;86.00
43320;DHT22;28914;48.722;9.332;2023-11-21T21:20:09;12.00;85.90
43320;DHT22;28914;48.722;9.332;2023-11-21T21:25:34;12.00;85.80
43320;DHT22;28914;48.722;9.332;2023-11-21T21:30:53;11.90;85.80
43320;DHT22;28914;48.722;9.332;2023-11-21T21:36:12;11.90;85.90
43320;DHT22;28914;48.722;9.332;2023-11-21T21:41:33;11.90;86.00
43320;DHT22;28914;48.722;9.332;2023-11-21T21:46:51;11.90;86.00
43320;DHT22;28914;48.722;9.332;2023-11-21T21:52:11;12.00;86.20
43320;DHT22;28914;48.722;9.332;2023-11-21T21:57:30;12.00;86.20
43320;DHT22;28914;48.722;9.332;2023-11-21T22:02:49;12.00;86.00
43320;DHT22;28914;48.722;9.332;2023-11-21T22:08:08;12.00;85.90
43320;DHT22;28914;48.722;9.332;2023-11-21T22:13:27;12.10;86.00
43320;DHT22;28914;48.722;9.332;2023-11-21T22:18:47;12.10;86.00
43320;DHT22;28914;48.722;9.332;2023-11-21T22:24:06;12.20;86.10
43320;DHT22;28914;48.722;9.332;2023-11-21T22:29:26;12.20;86.00
43320;DHT22;28914;48.722;9.332;2023-11-21T22:34:46;12.20;86.00
43320;DHT22;28914;48.722;9.332;2023-11-21T22:40:05;12.20;85.90
43320;DHT22;28914;48.722;9.332;2023-11-21T22:45:25;12.30;87.00
43320;DHT22;28914;48.722;9.332;2023-11-21T22:50:44;12.30;86.30
43320;DHT22;28914;48.722;9.332;2023-11-21T22:56:05;12.30;86.10
43320;DHT22;28914;48.722;9.332;2023-11-21T23:01:26;12.30;85.80
43320;DHT22;28914;48.722;9.332;2023-11-21T23:06:48;12.30;85.60
43320;DHT22;28914;48.722;9.332;2023-11-21T23:12:07;12.30;85.40
43320;DHT22;28914;48.722;9.332;2023-11-21T23:17:26;12.30;85.60
43320;DHT22;28914;48.722;9.332;2023-11-21T23:22:48;12.30;85.60
43320;DHT22;28914;48.722;9.332;2023-11-21T23:28:08;12.30;85.40
43320;DHT22;28914;48.722;9.332;2023-11-21T23:33:27;12.30;85.20
43320;DHT22;28914;48.722;9.332;2023-11-21T23:38:50;12.30;85.30
43320;DHT22;28914;48.722;9.332;2023-11-21T23:44:09;12.30;85.30
43320;DHT22;28914;48.722;9.332;2023-11-21T23:49:28;12.30;85.40
43320;DHT22;28914;48.722;9.332;2023-11-21T23:54:47;12.30;85.30
